Buzaubaj, Uzbekistan
Current Conditions -  °F | °C
As of 5:00 PM on Sunday 25 Jan 2015 (Local Time) from UTNU Reporting Station
Clear Clear  
Wind Chill:   Ceiling: Unl
Heat Index: 19°   Visibility: 6mi
Dew Point:   Wind: 13mph
Humidity: 46%   Direction: 40°NE
Pressure: 30.68"   Gusts: NA
Location:  41.75°N, 62.47°E
Report Text: UTNU 251200Z 04011KT CAVOK M07/M17 Q1039 R31/CLRD70 NOSIG
Loading
Personal Weather Stations






























Interactive Weather Map New forecast layout! Learn more

10-Day Weather Forecast

Advertisements
Track Severe Weather on mobile